EDT,Max TemperatureF,Mean TemperatureF,Min TemperatureF,Max Dew PointF,MeanDew PointF,Min DewpointF,Max Humidity, Mean Humidity, Min Humidity, Max Sea Level PressureIn, Mean Sea Level PressureIn, Min Sea Level PressureIn, Max VisibilityMiles, Mean VisibilityMiles, Min VisibilityMiles, Max Wind SpeedMPH, Mean Wind SpeedMPH, Max Gust SpeedMPH,PrecipitationIn, CloudCover, Events, WindDirDegrees
2013-4-1,51,44,36,41,36,24,89,68,46,30.01,29.90,29.83,10,10,7,24,9,36,0.04,6,Rain,275
2013-4-2,47,39,30,25,14,5,64,42,19,30.17,30.10,30.01,10,10,10,20,9,28,0.00,3,,295
2013-4-3,50,39,28,13,9,5,50,33,16,30.31,30.25,30.18,10,10,10,17,5,23,0.00,0,,333
2013-4-4,41,37,33,31,24,6,89,59,29,30.28,30.10,29.96,10,6,0,17,7,26,0.99,6,Fog-Rain-Snow,101
2013-4-5,35,34,33,32,31,30,93,88,85,30.01,29.95,29.92,4,2,0,7,4,,0.07,8,Fog-Rain,262
2013-4-6,64,59,53,30,29,27,40,33,25,30.15,30.14,30.12,10,10,10,17,11,26,0.00,0,,155
2013-4-7,69,59,48,38,33,29,50,39,27,30.15,30.07,30.01,10,10,10,26,11,36,0.00,1,,224
2013-4-8,76,65,54,45,41,39,59,48,37,30.08,30.03,29.96,10,10,10,20,8,26,0.00,2,,241
2013-4-9,81,69,56,49,45,40,62,43,23,30.14,30.07,30.02,10,10,10,22,7,26,0.00,1,,244
2013-4-10,85,73,60,51,47,41,65,44,22,30.06,29.98,29.87,10,10,10,20,8,25,0.00,0,,251
2013-4-11,81,71,61,58,49,43,78,52,26,29.87,29.77,29.64,10,10,3,20,8,26,0.56,2,Rain,205
2013-4-12,66,57,47,57,49,30,87,64,40,29.88,29.70,29.55,10,8,2,26,11,35,0.66,6,Rain-Thunderstorm,257
2013-4-13,65,55,44,35,30,25,70,47,24,30.01,29.93,29.86,10,10,10,23,11,32,0.00,1,,284
2013-4-14,75,61,47,41,31,25,46,31,16,30.07,30.01,29.96,10,10,10,17,6,26,0.04,1,Rain,221
2013-4-15,57,54,51,50,47,45,83,77,71,30.21,30.08,29.96,10,10,8,18,8,31,0.17,8,Rain,108
2013-4-16,80,68,56,55,51,45,80,55,30,30.23,30.17,30.11,10,10,10,18,9,31,0.00,4,,181
2013-4-17,72,66,59,56,54,50,87,68,49,30.32,30.20,30.10,10,9,2,17,5,22,0.43,5,Rain-Thunderstorm,255
2013-4-18,75,69,63,55,52,48,72,57,41,30.13,30.01,29.86,10,10,10,22,11,38,T,3,,172
2013-4-19,71,56,41,59,49,32,89,74,59,29.96,29.77,29.62,10,8,1,25,12,48,0.83,7,Rain,248
2013-4-20,54,44,33,29,24,18,75,52,28,30.31,30.11,29.91,10,10,10,23,10,36,T,3,,296
2013-4-21,58,46,33,30,25,19,69,49,29,30.44,30.38,30.32,10,10,10,15,6,24,0.00,0,,108
2013-4-22,60,49,37,30,26,18,70,46,21,30.40,30.31,30.24,10,10,10,15,7,22,0.00,0,,112
2013-4-23,72,57,41,42,34,27,70,45,20,30.24,30.13,30.02,10,10,10,14,5,21,0.00,0,,170
2013-4-24,75,58,40,54,46,37,83,60,36,30.14,29.99,29.89,10,9,2,29,11,44,0.20,5,Rain-Thunderstorm,250
2013-4-25,60,49,37,37,28,14,76,47,17,30.34,30.24,30.14,10,10,7,17,6,24,T,4,Rain,310
2013-4-26,65,53,40,31,27,24,60,41,22,30.41,30.35,30.30,10,10,10,12,4,16,0.00,1,,270
2013-4-27,62,58,53,47,39,26,77,55,32,30.33,30.27,30.19,10,10,7,14,5,22,0.07,8,Rain,192
2013-4-28,58,54,50,47,45,43,77,70,62,30.18,30.08,29.98,10,10,6,23,11,40,0.13,7,Rain,170
2013-4-29,63,58,52,52,49,46,83,74,64,30.06,30.01,29.96,10,10,8,15,4,20,0.02,7,Rain,213
2013-4-30,75,65,54,52,50,47,89,63,36,30.15,30.07,29.99,10,10,10,14,5,21,0.00,3,,123